sensor_id;sensor_type;location;lat;lon;timestamp;temperature;humidity
52187;DHT22;38161;53.020;6.598;2024-02-16T00:01:01;11.10;99.90
52187;DHT22;38161;53.020;6.598;2024-02-16T00:03:27;11.00;99.90
52187;DHT22;38161;53.020;6.598;2024-02-16T00:05:53;11.00;99.90
52187;DHT22;38161;53.020;6.598;2024-02-16T00:08:19;11.00;99.90
52187;DHT22;38161;53.020;6.598;2024-02-16T00:10:48;11.00;99.90
52187;DHT22;38161;53.020;6.598;2024-02-16T00:13:14;11.00;99.90
52187;DHT22;38161;53.020;6.598;2024-02-16T00:15:40;11.00;99.90
52187;DHT22;38161;53.020;6.598;2024-02-16T00:18:06;11.00;99.90
52187;DHT22;38161;53.020;6.598;2024-02-16T00:20:32;11.00;99.90
52187;DHT22;38161;53.020;6.598;2024-02-16T00:22:58;11.00;99.90
52187;DHT22;38161;53.020;6.598;2024-02-16T00:25:25;11.00;99.90
52187;DHT22;38161;53.020;6.598;2024-02-16T00:27:51;11.00;99.90
52187;DHT22;38161;53.020;6.598;2024-02-16T00:30:20;11.00;99.90
52187;DHT22;38161;53.020;6.598;2024-02-16T00:32:47;10.90;99.90
52187;DHT22;38161;53.020;6.598;2024-02-16T00:35:14;10.90;99.90
52187;DHT22;38161;53.020;6.598;2024-02-16T00:37:42;11.00;99.90
52187;DHT22;38161;53.020;6.598;2024-02-16T00:40:08;10.90;99.90
52187;DHT22;38161;53.020;6.598;2024-02-16T00:42:34;10.90;99.90
52187;DHT22;38161;53.020;6.598;2024-02-16T00:45:00;10.90;99.90
52187;DHT22;38161;53.020;6.598;2024-02-16T00:47:26;10.90;99.90
52187;DHT22;38161;53.020;6.598;2024-02-16T00:49:55;10.90;99.90
52187;DHT22;38161;53.020;6.598;2024-02-16T00:52:21;10.90;99.90
52187;DHT22;38161;53.020;6.598;2024-02-16T00:54:48;10.90;99.90
52187;DHT22;38161;53.020;6.598;2024-02-16T00:57:14;10.80;99.90
52187;DHT22;38161;53.020;6.598;2024-02-16T00:59:40;10.90;99.90
52187;DHT22;38161;53.020;6.598;2024-02-16T01:02:06;10.80;99.90
52187;DHT22;38161;53.020;6.598;2024-02-16T01:04:33;10.80;99.90
52187;DHT22;38161;53.020;6.598;2024-02-16T01:06:59;10.80;99.90
52187;DHT22;38161;53.020;6.598;2024-02-16T01:09:25;10.80;99.90
52187;DHT22;38161;53.020;6.598;2024-02-16T01:11:51;10.80;99.90
52187;DHT22;38161;53.020;6.598;2024-02-16T01:14:17;10.80;99.90
52187;DHT22;38161;53.020;6.598;2024-02-16T01:16:42;10.80;99.90
52187;DHT22;38161;53.020;6.598;2024-02-16T01:19:08;10.70;99.90
52187;DHT22;38161;53.020;6.598;2024-02-16T01:21:35;10.70;99.90
52187;DHT22;38161;53.020;6.598;2024-02-16T01:24:01;10.80;99.90
52187;DHT22;38161;53.020;6.598;2024-02-16T01:26:27;10.70;99.90
52187;DHT22;38161;53.020;6.598;2024-02-16T01:28:53;10.70;99.90
52187;DHT22;38161;53.020;6.598;2024-02-16T01:31:19;10.70;99.90
52187;DHT22;38161;53.020;6.598;2024-02-16T01:33:45;10.70;99.90
52187;DHT22;38161;53.020;6.598;2024-02-16T01:36:11;10.70;99.90
52187;DHT22;38161;53.020;6.598;2024-02-16T01:38:37;10.70;99.90
52187;DHT22;38161;53.020;6.598;2024-02-16T01:41:02;10.60;99.90
52187;DHT22;38161;53.020;6.598;2024-02-16T01:43:28;10.60;99.90
52187;DHT22;38161;53.020;6.598;2024-02-16T01:45:54;10.60;99.90
52187;DHT22;38161;53.020;6.598;2024-02-16T01:48:21;10.60;99.90
52187;DHT22;38161;53.020;6.598;2024-02-16T01:50:48;10.60;99.90
52187;DHT22;38161;53.020;6.598;2024-02-16T01:53:15;10.60;99.90
52187;DHT22;38161;53.020;6.598;2024-02-16T01:55:47;10.60;99.90
52187;DHT22;38161;53.020;6.598;2024-02-16T01:58:13;10.60;99.90
52187;DHT22;38161;53.020;6.598;2024-02-16T02:00:40;10.60;99.90
52187;DHT22;38161;53.020;6.598;2024-02-16T02:03:06;10.50;99.90
52187;DHT22;38161;53.020;6.598;2024-02-16T02:05:32;10.60;99.90
52187;DHT22;38161;53.020;6.598;2024-02-16T02:07:58;10.60;99.90
52187;DHT22;38161;53.020;6.598;2024-02-16T02:10:24;10.60;99.90
52187;DHT22;38161;53.020;6.598;2024-02-16T02:12:50;10.60;99.90
52187;DHT22;38161;53.020;6.598;2024-02-16T02:15:16;10.60;99.90
52187;DHT22;38161;53.020;6.598;2024-02-16T02:17:42;10.60;99.90
52187;DHT22;38161;53.020;6.598;2024-02-16T02:20:08;10.50;99.90
52187;DHT22;38161;53.020;6.598;2024-02-16T02:22:37;10.50;99.90
52187;DHT22;38161;53.020;6.598;2024-02-16T02:25:04;10.50;99.90
52187;DHT22;38161;53.020;6.598;2024-02-16T02:27:30;10.50;99.90
52187;DHT22;38161;53.020;6.598;2024-02-16T02:29:56;10.60;99.90
52187;DHT22;38161;53.020;6.598;2024-02-16T02:32:24;10.50;99.90
52187;DHT22;38161;53.020;6.598;2024-02-16T02:34:50;10.50;99.90
52187;DHT22;38161;53.020;6.598;2024-02-16T02:37:15;10.50;99.90
52187;DHT22;38161;53.020;6.598;2024-02-16T02:39:41;10.50;99.90
52187;DHT22;38161;53.020;6.598;2024-02-16T02:42:07;10.50;99.90
52187;DHT22;38161;53.020;6.598;2024-02-16T02:44:33;10.40;99.90
52187;DHT22;38161;53.020;6.598;2024-02-16T02:46:59;10.40;99.90
52187;DHT22;38161;53.020;6.598;2024-02-16T02:49:25;10.40;99.90
52187;DHT22;38161;53.020;6.598;2024-02-16T02:51:51;10.40;99.90
52187;DHT22;38161;53.020;6.598;2024-02-16T02:54:17;10.40;99.90
52187;DHT22;38161;53.020;6.598;2024-02-16T02:56:43;10.40;99.90
52187;DHT22;38161;53.020;6.598;2024-02-16T02:59:09;10.40;99.90
52187;DHT22;38161;53.020;6.598;2024-02-16T03:01:36;10.40;99.90
52187;DHT22;38161;53.020;6.598;2024-02-16T03:04:03;10.40;99.90
52187;DHT22;38161;53.020;6.598;2024-02-16T03:06:29;10.40;99.90
52187;DHT22;38161;53.020;6.598;2024-02-16T03:08:54;10.30;99.90
52187;DHT22;38161;53.020;6.598;2024-02-16T03:11:20;10.30;99.90
52187;DHT22;38161;53.020;6.598;2024-02-16T03:13:46;10.30;99.90
52187;DHT22;38161;53.020;6.598;2024-02-16T03:16:12;10.40;99.90
52187;DHT22;38161;53.020;6.598;2024-02-16T03:18:38;10.30;99.90
52187;DHT22;38161;53.020;6.598;2024-02-16T03:21:03;10.30;99.90
52187;DHT22;38161;53.020;6.598;2024-02-16T03:23:30;10.30;99.90
52187;DHT22;38161;53.020;6.598;2024-02-16T03:25:56;10.30;99.90
52187;DHT22;38161;53.020;6.598;2024-02-16T03:28:22;10.30;99.90
52187;DHT22;38161;53.020;6.598;2024-02-16T03:30:47;10.30;99.90
52187;DHT22;38161;53.020;6.598;2024-02-16T03:33:13;10.30;99.90
52187;DHT22;38161;53.020;6.598;2024-02-16T03:35:39;10.30;99.90
52187;DHT22;38161;53.020;6.598;2024-02-16T03:38:07;10.30;99.90
52187;DHT22;38161;53.020;6.598;2024-02-16T03:40:33;10.30;99.90
52187;DHT22;38161;53.020;6.598;2024-02-16T03:42:59;10.30;99.90
52187;DHT22;38161;53.020;6.598;2024-02-16T03:45:26;10.30;99.90
52187;DHT22;38161;53.020;6.598;2024-02-16T03:47:54;10.30;99.90
52187;DHT22;38161;53.020;6.598;2024-02-16T03:50:20;10.30;99.90
52187;DHT22;38161;53.020;6.598;2024-02-16T03:52:46;10.30;99.90
52187;DHT22;38161;53.020;6.598;2024-02-16T03:55:12;10.30;99.90
52187;DHT22;38161;53.020;6.598;2024-02-16T03:57:39;10.30;99.90
52187;DHT22;38161;53.020;6.598;2024-02-16T04:00:06;10.30;99.90
52187;DHT22;38161;53.020;6.598;2024-02-16T04:02:32;10.30;99.90
52187;DHT22;38161;53.020;6.598;2024-02-16T04:04:57;10.30;99.90
52187;DHT22;38161;53.020;6.598;2024-02-16T04:07:23;10.30;99.90
52187;DHT22;38161;53.020;6.598;2024-02-16T04:09:49;10.20;99.90
52187;DHT22;38161;53.020;6.598;2024-02-16T04:12:15;10.20;99.90
52187;DHT22;38161;53.020;6.598;2024-02-16T04:14:41;10.20;99.90
52187;DHT22;38161;53.020;6.598;2024-02-16T04:17:09;10.20;99.90
52187;DHT22;38161;53.020;6.598;2024-02-16T04:19:36;10.20;99.90
52187;DHT22;38161;53.020;6.598;2024-02-16T04:22:02;10.20;99.90
52187;DHT22;38161;53.020;6.598;2024-02-16T04:24:29;10.20;99.90
52187;DHT22;38161;53.020;6.598;2024-02-16T04:26:55;10.20;99.90
52187;DHT22;38161;53.020;6.598;2024-02-16T04:29:20;10.20;99.90
52187;DHT22;38161;53.020;6.598;2024-02-16T04:31:46;10.20;99.90
52187;DHT22;38161;53.020;6.598;2024-02-16T04:34:13;10.20;99.90
52187;DHT22;38161;53.020;6.598;2024-02-16T04:36:39;10.10;99.90
52187;DHT22;38161;53.020;6.598;2024-02-16T04:39:05;10.10;99.90
52187;DHT22;38161;53.020;6.598;2024-02-16T04:41:31;10.10;99.90
52187;DHT22;38161;53.020;6.598;2024-02-16T04:43:57;10.10;99.90
52187;DHT22;38161;53.020;6.598;2024-02-16T04:46:24;10.10;99.90
52187;DHT22;38161;53.020;6.598;2024-02-16T04:48:49;10.10;99.90
52187;DHT22;38161;53.020;6.598;2024-02-16T04:51:15;10.10;99.90
52187;DHT22;38161;53.020;6.598;2024-02-16T04:53:41;10.10;99.90
52187;DHT22;38161;53.020;6.598;2024-02-16T04:56:07;10.10;99.90
52187;DHT22;38161;53.020;6.598;2024-02-16T04:58:32;10.10;99.90
52187;DHT22;38161;53.020;6.598;2024-02-16T05:00:59;10.10;99.90
52187;DHT22;38161;53.020;6.598;2024-02-16T05:03:25;10.10;99.90
52187;DHT22;38161;53.020;6.598;2024-02-16T05:05:50;10.10;99.90
52187;DHT22;38161;53.020;6.598;2024-02-16T05:08:18;10.10;99.90
52187;DHT22;38161;53.020;6.598;2024-02-16T05:10:43;10.10;99.90
52187;DHT22;38161;53.020;6.598;2024-02-16T05:13:09;10.10;99.90
52187;DHT22;38161;53.020;6.598;2024-02-16T05:15:37;10.10;99.90
52187;DHT22;38161;53.020;6.598;2024-02-16T05:18:02;10.20;99.90
52187;DHT22;38161;53.020;6.598;2024-02-16T05:20:28;10.10;99.90
52187;DHT22;38161;53.020;6.598;2024-02-16T05:22:54;10.10;99.90
52187;DHT22;38161;53.020;6.598;2024-02-16T05:25:20;10.10;99.90
52187;DHT22;38161;53.020;6.598;2024-02-16T05:27:46;10.10;99.90
52187;DHT22;38161;53.020;6.598;2024-02-16T05:30:13;10.10;99.90
52187;DHT22;38161;53.020;6.598;2024-02-16T05:32:41;10.10;99.90
52187;DHT22;38161;53.020;6.598;2024-02-16T05:35:07;10.10;99.90
52187;DHT22;38161;53.020;6.598;2024-02-16T05:37:47;10.10;99.90
52187;DHT22;38161;53.020;6.598;2024-02-16T05:40:17;10.10;99.90
52187;DHT22;38161;53.020;6.598;2024-02-16T05:42:57;10.10;99.90
52187;DHT22;38161;53.020;6.598;2024-02-16T05:45:26;10.10;99.90
52187;DHT22;38161;53.020;6.598;2024-02-16T05:47:54;10.10;99.90
52187;DHT22;38161;53.020;6.598;2024-02-16T05:50:21;10.20;99.90
52187;DHT22;38161;53.020;6.598;2024-02-16T05:52:46;10.20;99.90
52187;DHT22;38161;53.020;6.598;2024-02-16T05:55:12;10.20;99.90
52187;DHT22;38161;53.020;6.598;2024-02-16T05:57:39;10.20;99.90
52187;DHT22;38161;53.020;6.598;2024-02-16T06:00:06;10.10;99.90
52187;DHT22;38161;53.020;6.598;2024-02-16T06:02:33;10.20;99.90
52187;DHT22;38161;53.020;6.598;2024-02-16T06:05:00;10.20;99.90
52187;DHT22;38161;53.020;6.598;2024-02-16T06:07:26;10.20;99.90
52187;DHT22;38161;53.020;6.598;2024-02-16T06:09:52;10.20;99.90
52187;DHT22;38161;53.020;6.598;2024-02-16T06:12:19;10.20;99.90
52187;DHT22;38161;53.020;6.598;2024-02-16T06:14:46;10.20;99.90
52187;DHT22;38161;53.020;6.598;2024-02-16T06:17:14;10.20;99.90
52187;DHT22;38161;53.020;6.598;2024-02-16T06:19:43;10.20;99.90
52187;DHT22;38161;53.020;6.598;2024-02-16T06:22:09;10.20;99.90
52187;DHT22;38161;53.020;6.598;2024-02-16T06:24:36;10.20;99.90
52187;DHT22;38161;53.020;6.598;2024-02-16T06:27:02;10.20;99.90
52187;DHT22;38161;53.020;6.598;2024-02-16T06:29:28;10.30;99.90
52187;DHT22;38161;53.020;6.598;2024-02-16T06:31:56;10.20;99.90
52187;DHT22;38161;53.020;6.598;2024-02-16T06:34:22;10.30;99.90
52187;DHT22;38161;53.020;6.598;2024-02-16T06:36:47;10.30;99.90
52187;DHT22;38161;53.020;6.598;2024-02-16T06:39:15;10.30;99.90
52187;DHT22;38161;53.020;6.598;2024-02-16T06:41:42;10.30;99.90
52187;DHT22;38161;53.020;6.598;2024-02-16T06:44:11;10.30;99.90
52187;DHT22;38161;53.020;6.598;2024-02-16T06:46:37;10.30;99.90
52187;DHT22;38161;53.020;6.598;2024-02-16T06:49:03;10.30;99.90
52187;DHT22;38161;53.020;6.598;2024-02-16T06:51:29;10.30;99.90
52187;DHT22;38161;53.020;6.598;2024-02-16T06:53:55;10.30;99.90
52187;DHT22;38161;53.020;6.598;2024-02-16T06:56:20;10.30;99.90
52187;DHT22;38161;53.020;6.598;2024-02-16T06:58:47;10.30;99.90
52187;DHT22;38161;53.020;6.598;2024-02-16T07:01:13;10.30;99.90
52187;DHT22;38161;53.020;6.598;2024-02-16T07:03:40;10.30;99.90
52187;DHT22;38161;53.020;6.598;2024-02-16T07:06:06;10.30;99.90
52187;DHT22;38161;53.020;6.598;2024-02-16T07:08:38;10.40;99.90
52187;DHT22;38161;53.020;6.598;2024-02-16T07:11:04;10.40;99.90
52187;DHT22;38161;53.020;6.598;2024-02-16T07:13:33;10.40;99.90
52187;DHT22;38161;53.020;6.598;2024-02-16T07:16:00;10.40;99.90
52187;DHT22;38161;53.020;6.598;2024-02-16T07:18:26;10.40;99.90
52187;DHT22;38161;53.020;6.598;2024-02-16T07:20:52;10.40;99.90
52187;DHT22;38161;53.020;6.598;2024-02-16T07:23:18;10.50;99.90
52187;DHT22;38161;53.020;6.598;2024-02-16T07:25:43;10.40;99.90
52187;DHT22;38161;53.020;6.598;2024-02-16T07:28:09;10.50;99.90
52187;DHT22;38161;53.020;6.598;2024-02-16T07:30:36;10.50;99.90
52187;DHT22;38161;53.020;6.598;2024-02-16T07:33:08;10.50;99.90
52187;DHT22;38161;53.020;6.598;2024-02-16T07:35:34;10.50;99.90
52187;DHT22;38161;53.020;6.598;2024-02-16T07:38:06;10.60;99.90
52187;DHT22;38161;53.020;6.598;2024-02-16T07:40:32;10.60;99.90
52187;DHT22;38161;53.020;6.598;2024-02-16T07:42:58;10.70;99.90
52187;DHT22;38161;53.020;6.598;2024-02-16T07:45:24;10.60;99.90
52187;DHT22;38161;53.020;6.598;2024-02-16T07:47:50;10.70;99.90
52187;DHT22;38161;53.020;6.598;2024-02-16T07:50:23;10.70;99.90
52187;DHT22;38161;53.020;6.598;2024-02-16T07:52:49;10.70;99.90
52187;DHT22;38161;53.020;6.598;2024-02-16T07:55:15;10.70;99.90
52187;DHT22;38161;53.020;6.598;2024-02-16T07:57:44;10.80;99.90
52187;DHT22;38161;53.020;6.598;2024-02-16T08:00:10;10.80;99.90
52187;DHT22;38161;53.020;6.598;2024-02-16T08:02:36;10.80;99.90
52187;DHT22;38161;53.020;6.598;2024-02-16T08:05:02;10.80;99.90
52187;DHT22;38161;53.020;6.598;2024-02-16T08:07:28;10.80;99.90
52187;DHT22;38161;53.020;6.598;2024-02-16T08:09:54;10.90;99.90
52187;DHT22;38161;53.020;6.598;2024-02-16T08:12:20;10.90;99.90
52187;DHT22;38161;53.020;6.598;2024-02-16T08:14:46;10.90;99.90
52187;DHT22;38161;53.020;6.598;2024-02-16T08:17:12;10.90;99.90
52187;DHT22;38161;53.020;6.598;2024-02-16T08:19:38;10.90;99.90
52187;DHT22;38161;53.020;6.598;2024-02-16T08:22:06;11.00;99.90
52187;DHT22;38161;53.020;6.598;2024-02-16T08:24:36;11.00;99.90
52187;DHT22;38161;53.020;6.598;2024-02-16T08:27:03;11.00;99.90
52187;DHT22;38161;53.020;6.598;2024-02-16T08:29:30;11.00;99.90
52187;DHT22;38161;53.020;6.598;2024-02-16T08:31:56;11.00;99.90
52187;DHT22;38161;53.020;6.598;2024-02-16T08:34:22;10.90;99.90
52187;DHT22;38161;53.020;6.598;2024-02-16T08:36:48;11.00;99.90
52187;DHT22;38161;53.020;6.598;2024-02-16T08:39:14;11.00;99.90
52187;DHT22;38161;53.020;6.598;2024-02-16T08:41:41;11.00;99.90
52187;DHT22;38161;53.020;6.598;2024-02-16T08:44:07;11.00;99.90
52187;DHT22;38161;53.020;6.598;2024-02-16T08:46:36;11.10;99.90
52187;DHT22;38161;53.020;6.598;2024-02-16T08:49:05;11.00;99.90
52187;DHT22;38161;53.020;6.598;2024-02-16T08:51:34;11.10;99.90
52187;DHT22;38161;53.020;6.598;2024-02-16T08:54:00;11.10;99.90
52187;DHT22;38161;53.020;6.598;2024-02-16T08:56:27;11.10;99.90
52187;DHT22;38161;53.020;6.598;2024-02-16T08:58:54;11.10;99.90
52187;DHT22;38161;53.020;6.598;2024-02-16T09:01:30;11.20;99.90
52187;DHT22;38161;53.020;6.598;2024-02-16T09:03:56;11.20;99.90
52187;DHT22;38161;53.020;6.598;2024-02-16T09:06:21;11.30;99.90
52187;DHT22;38161;53.020;6.598;2024-02-16T09:08:47;11.30;99.90
52187;DHT22;38161;53.020;6.598;2024-02-16T09:11:13;11.30;99.90
52187;DHT22;38161;53.020;6.598;2024-02-16T09:13:39;11.30;99.90
52187;DHT22;38161;53.020;6.598;2024-02-16T09:16:06;11.30;99.90
52187;DHT22;38161;53.020;6.598;2024-02-16T09:18:32;11.40;99.90
52187;DHT22;38161;53.020;6.598;2024-02-16T09:20:59;11.40;99.90
52187;DHT22;38161;53.020;6.598;2024-02-16T09:23:26;11.40;99.90
52187;DHT22;38161;53.020;6.598;2024-02-16T09:25:51;11.50;99.90
52187;DHT22;38161;53.020;6.598;2024-02-16T09:28:17;11.50;99.90
52187;DHT22;38161;53.020;6.598;2024-02-16T09:30:47;11.60;99.90
52187;DHT22;38161;53.020;6.598;2024-02-16T09:33:12;11.60;99.90
52187;DHT22;38161;53.020;6.598;2024-02-16T09:35:42;11.60;99.90
52187;DHT22;38161;53.020;6.598;2024-02-16T09:38:07;11.70;99.90
52187;DHT22;38161;53.020;6.598;2024-02-16T09:40:36;11.70;99.90
52187;DHT22;38161;53.020;6.598;2024-02-16T09:43:02;11.80;99.90
52187;DHT22;38161;53.020;6.598;2024-02-16T09:45:29;11.80;99.90
52187;DHT22;38161;53.020;6.598;2024-02-16T09:47:56;11.90;99.90
52187;DHT22;38161;53.020;6.598;2024-02-16T09:50:22;11.90;99.90
52187;DHT22;38161;53.020;6.598;2024-02-16T09:52:50;12.00;99.90
52187;DHT22;38161;53.020;6.598;2024-02-16T09:55:17;12.00;99.90
52187;DHT22;38161;53.020;6.598;2024-02-16T09:57:46;12.10;99.90
52187;DHT22;38161;53.020;6.598;2024-02-16T10:00:13;12.10;99.90
52187;DHT22;38161;53.020;6.598;2024-02-16T10:02:46;12.20;99.90
52187;DHT22;38161;53.020;6.598;2024-02-16T10:07:39;12.20;99.90
52187;DHT22;38161;53.020;6.598;2024-02-16T10:10:06;12.30;99.90
52187;DHT22;38161;53.020;6.598;2024-02-16T10:12:31;12.30;99.90
52187;DHT22;38161;53.020;6.598;2024-02-16T10:14:57;12.40;99.90
52187;DHT22;38161;53.020;6.598;2024-02-16T10:17:25;12.40;99.90
52187;DHT22;38161;53.020;6.598;2024-02-16T10:20:00;12.50;99.90
52187;DHT22;38161;53.020;6.598;2024-02-16T10:22:32;12.50;99.90
52187;DHT22;38161;53.020;6.598;2024-02-16T10:25:08;12.60;99.90
52187;DHT22;38161;53.020;6.598;2024-02-16T10:27:37;12.70;99.90
52187;DHT22;38161;53.020;6.598;2024-02-16T10:30:06;12.80;99.90
52187;DHT22;38161;53.020;6.598;2024-02-16T10:32:38;12.90;99.90
52187;DHT22;38161;53.020;6.598;2024-02-16T10:35:06;13.00;99.90
52187;DHT22;38161;53.020;6.598;2024-02-16T10:37:34;13.00;99.90
52187;DHT22;38161;53.020;6.598;2024-02-16T10:40:01;13.00;99.90
52187;DHT22;38161;53.020;6.598;2024-02-16T10:42:28;13.00;99.90
52187;DHT22;38161;53.020;6.598;2024-02-16T10:44:55;13.00;99.90
52187;DHT22;38161;53.020;6.598;2024-02-16T10:47:21;13.00;99.90
52187;DHT22;38161;53.020;6.598;2024-02-16T10:49:46;13.00;99.90
52187;DHT22;38161;53.020;6.598;2024-02-16T10:52:13;13.00;99.90
52187;DHT22;38161;53.020;6.598;2024-02-16T10:54:40;12.90;99.90
52187;DHT22;38161;53.020;6.598;2024-02-16T10:57:09;12.90;99.90
52187;DHT22;38161;53.020;6.598;2024-02-16T10:59:44;12.90;99.90
52187;DHT22;38161;53.020;6.598;2024-02-16T11:02:11;12.90;99.90
52187;DHT22;38161;53.020;6.598;2024-02-16T11:04:38;12.90;99.90
52187;DHT22;38161;53.020;6.598;2024-02-16T11:07:12;12.80;99.90
52187;DHT22;38161;53.020;6.598;2024-02-16T11:09:39;12.80;99.90
52187;DHT22;38161;53.020;6.598;2024-02-16T11:12:06;12.80;99.90
52187;DHT22;38161;53.020;6.598;2024-02-16T11:14:42;12.80;99.90
52187;DHT22;38161;53.020;6.598;2024-02-16T11:17:15;12.70;99.90
52187;DHT22;38161;53.020;6.598;2024-02-16T11:19:42;12.70;99.90
52187;DHT22;38161;53.020;6.598;2024-02-16T11:22:08;12.70;99.90
52187;DHT22;38161;53.020;6.598;2024-02-16T11:24:36;12.60;99.90
52187;DHT22;38161;53.020;6.598;2024-02-16T11:27:04;12.60;99.90
52187;DHT22;38161;53.020;6.598;2024-02-16T11:29:32;12.60;99.90
52187;DHT22;38161;53.020;6.598;2024-02-16T11:32:00;12.50;99.90
52187;DHT22;38161;53.020;6.598;2024-02-16T11:34:29;12.40;99.90
52187;DHT22;38161;53.020;6.598;2024-02-16T11:36:56;12.40;99.90
52187;DHT22;38161;53.020;6.598;2024-02-16T11:39:23;12.30;99.90
52187;DHT22;38161;53.020;6.598;2024-02-16T11:42:02;12.30;99.90
52187;DHT22;38161;53.020;6.598;2024-02-16T11:44:38;12.10;99.90
52187;DHT22;38161;53.020;6.598;2024-02-16T11:47:05;12.00;99.90
52187;DHT22;38161;53.020;6.598;2024-02-16T11:49:34;12.00;99.90
52187;DHT22;38161;53.020;6.598;2024-02-16T11:52:00;11.90;99.90
52187;DHT22;38161;53.020;6.598;2024-02-16T11:54:26;11.80;99.90
52187;DHT22;38161;53.020;6.598;2024-02-16T11:56:52;11.80;99.90
52187;DHT22;38161;53.020;6.598;2024-02-16T11:59:19;11.70;99.90
52187;DHT22;38161;53.020;6.598;2024-02-16T12:02:03;11.60;99.90
52187;DHT22;38161;53.020;6.598;2024-02-16T12:04:30;11.60;99.90
52187;DHT22;38161;53.020;6.598;2024-02-16T12:07:00;11.50;99.90
52187;DHT22;38161;53.020;6.598;2024-02-16T12:09:27;11.50;99.90
52187;DHT22;38161;53.020;6.598;2024-02-16T12:11:54;11.40;99.90
52187;DHT22;38161;53.020;6.598;2024-02-16T12:14:22;11.40;99.90
52187;DHT22;38161;53.020;6.598;2024-02-16T12:16:49;11.40;99.90
52187;DHT22;38161;53.020;6.598;2024-02-16T12:19:16;11.30;99.90
52187;DHT22;38161;53.020;6.598;2024-02-16T12:21:42;11.20;99.90
52187;DHT22;38161;53.020;6.598;2024-02-16T12:24:07;11.30;99.90
52187;DHT22;38161;53.020;6.598;2024-02-16T12:26:33;11.20;99.90
52187;DHT22;38161;53.020;6.598;2024-02-16T12:28:59;11.20;99.90
52187;DHT22;38161;53.020;6.598;2024-02-16T12:31:25;11.10;99.90
52187;DHT22;38161;53.020;6.598;2024-02-16T12:33:52;11.20;99.90
52187;DHT22;38161;53.020;6.598;2024-02-16T12:36:18;11.20;99.90
52187;DHT22;38161;53.020;6.598;2024-02-16T12:38:43;11.10;99.90
52187;DHT22;38161;53.020;6.598;2024-02-16T12:41:09;11.10;99.90
52187;DHT22;38161;53.020;6.598;2024-02-16T12:43:35;11.10;99.90
52187;DHT22;38161;53.020;6.598;2024-02-16T12:46:01;11.10;99.90
52187;DHT22;38161;53.020;6.598;2024-02-16T12:48:29;11.00;99.90
52187;DHT22;38161;53.020;6.598;2024-02-16T12:50:55;11.00;99.90
52187;DHT22;38161;53.020;6.598;2024-02-16T12:53:23;11.10;99.90
52187;DHT22;38161;53.020;6.598;2024-02-16T12:55:50;11.10;99.90
52187;DHT22;38161;53.020;6.598;2024-02-16T12:58:16;11.10;99.90
52187;DHT22;38161;53.020;6.598;2024-02-16T13:00:42;11.10;99.90
52187;DHT22;38161;53.020;6.598;2024-02-16T13:03:08;11.10;99.90
52187;DHT22;38161;53.020;6.598;2024-02-16T13:05:34;11.10;99.90
52187;DHT22;38161;53.020;6.598;2024-02-16T13:08:00;11.00;99.90
52187;DHT22;38161;53.020;6.598;2024-02-16T13:10:26;11.00;99.90
52187;DHT22;38161;53.020;6.598;2024-02-16T13:12:52;11.00;99.90
52187;DHT22;38161;53.020;6.598;2024-02-16T13:15:18;11.00;99.90
52187;DHT22;38161;53.020;6.598;2024-02-16T13:17:44;11.00;99.90
52187;DHT22;38161;53.020;6.598;2024-02-16T13:20:10;11.00;99.90
52187;DHT22;38161;53.020;6.598;2024-02-16T13:22:36;11.00;99.90
52187;DHT22;38161;53.020;6.598;2024-02-16T13:25:06;11.00;99.90
52187;DHT22;38161;53.020;6.598;2024-02-16T13:27:32;11.00;99.90
52187;DHT22;38161;53.020;6.598;2024-02-16T13:29:58;11.10;99.90
52187;DHT22;38161;53.020;6.598;2024-02-16T13:32:24;11.10;99.90
52187;DHT22;38161;53.020;6.598;2024-02-16T13:34:50;11.10;99.90
52187;DHT22;38161;53.020;6.598;2024-02-16T13:37:16;11.10;99.90
52187;DHT22;38161;53.020;6.598;2024-02-16T13:39:42;11.10;99.90
52187;DHT22;38161;53.020;6.598;2024-02-16T13:42:08;11.10;99.90
52187;DHT22;38161;53.020;6.598;2024-02-16T13:44:34;11.10;99.90
52187;DHT22;38161;53.020;6.598;2024-02-16T13:47:00;11.10;99.90
52187;DHT22;38161;53.020;6.598;2024-02-16T13:49:26;11.10;99.90
52187;DHT22;38161;53.020;6.598;2024-02-16T13:51:52;11.10;99.90
52187;DHT22;38161;53.020;6.598;2024-02-16T13:54:18;11.10;99.90
52187;DHT22;38161;53.020;6.598;2024-02-16T13:56:43;11.10;99.90
52187;DHT22;38161;53.020;6.598;2024-02-16T13:59:09;11.10;99.90
52187;DHT22;38161;53.020;6.598;2024-02-16T14:01:36;11.20;99.90
52187;DHT22;38161;53.020;6.598;2024-02-16T14:04:02;11.20;99.90
52187;DHT22;38161;53.020;6.598;2024-02-16T14:06:29;11.20;99.90
52187;DHT22;38161;53.020;6.598;2024-02-16T14:08:56;11.20;99.90
52187;DHT22;38161;53.020;6.598;2024-02-16T14:11:23;11.20;99.90
52187;DHT22;38161;53.020;6.598;2024-02-16T14:13:48;11.20;99.90
52187;DHT22;38161;53.020;6.598;2024-02-16T14:16:15;11.20;99.90
52187;DHT22;38161;53.020;6.598;2024-02-16T14:18:40;11.20;99.90
52187;DHT22;38161;53.020;6.598;2024-02-16T14:21:06;11.10;99.90
52187;DHT22;38161;53.020;6.598;2024-02-16T14:23:32;11.20;99.90
52187;DHT22;38161;53.020;6.598;2024-02-16T14:25:59;11.20;99.90
52187;DHT22;38161;53.020;6.598;2024-02-16T14:28:24;11.10;99.90
52187;DHT22;38161;53.020;6.598;2024-02-16T14:30:50;11.10;99.90
52187;DHT22;38161;53.020;6.598;2024-02-16T14:33:16;11.10;99.90
52187;DHT22;38161;53.020;6.598;2024-02-16T14:35:44;11.10;99.90
52187;DHT22;38161;53.020;6.598;2024-02-16T14:38:11;11.00;99.90
52187;DHT22;38161;53.020;6.598;2024-02-16T14:40:38;11.10;99.90
52187;DHT22;38161;53.020;6.598;2024-02-16T14:43:04;11.10;99.90
52187;DHT22;38161;53.020;6.598;2024-02-16T14:45:30;11.10;99.90
52187;DHT22;38161;53.020;6.598;2024-02-16T14:47:56;11.10;99.90
52187;DHT22;38161;53.020;6.598;2024-02-16T14:50:23;11.00;99.90
52187;DHT22;38161;53.020;6.598;2024-02-16T14:52:49;11.10;99.90
52187;DHT22;38161;53.020;6.598;2024-02-16T14:55:15;11.00;99.90
52187;DHT22;38161;53.020;6.598;2024-02-16T14:57:41;11.00;99.90
52187;DHT22;38161;53.020;6.598;2024-02-16T15:00:08;11.00;99.90
52187;DHT22;38161;53.020;6.598;2024-02-16T15:02:34;11.00;99.90
52187;DHT22;38161;53.020;6.598;2024-02-16T15:05:00;11.00;99.90
52187;DHT22;38161;53.020;6.598;2024-02-16T15:07:26;11.00;99.90
52187;DHT22;38161;53.020;6.598;2024-02-16T15:09:51;11.00;99.90
52187;DHT22;38161;53.020;6.598;2024-02-16T15:12:17;11.00;99.90
52187;DHT22;38161;53.020;6.598;2024-02-16T15:14:49;11.00;99.90
52187;DHT22;38161;53.020;6.598;2024-02-16T15:17:15;11.00;99.90
52187;DHT22;38161;53.020;6.598;2024-02-16T15:19:41;11.00;99.90
52187;DHT22;38161;53.020;6.598;2024-02-16T15:22:07;10.90;99.90
52187;DHT22;38161;53.020;6.598;2024-02-16T15:24:34;11.00;99.90
52187;DHT22;38161;53.020;6.598;2024-02-16T15:27:00;10.90;99.90
52187;DHT22;38161;53.020;6.598;2024-02-16T15:29:29;10.90;99.90